Shelly Sue — SHELLY — position and weather

sailwx.info

Track history (hours):
 
Tides and Currents Weather Stations Pressure Air Temp Water Temp Dewpoint Dewpoint Depression Visibility Wind Speed Wind Dir Waves Ship Positions

Shelly Sue

Last reported at 2018-Jun-19 02:47 UTC. Time now 2018-Jun-19 20:13 UTC.
Position N 33°43' W 118°17'.

Length 19 m.

Type: Pleasure craft. MMSI: 338215311.

Date/timePositionNaut miles runAvg speedWind from/ knotsBaromVisibWave heightAir tempDewpointWater temp
2018-Jun-19 02:47N 33°43' W 118°17'0 0.0
2018-Jun-19 02:23N 33°43' W 118°17'0 0.0
2018-Jun-18 18:47N 33°43' W 118°17'0 0.0
2018-Jun-18 18:26N 33°43' W 118°17'0 0.0
2018-Jun-18 14:59N 33°43' W 118°17'0 0.0
2018-Jun-18 12:59N 33°43' W 118°17'0 0.0
2018-Jun-18 08:26N 33°43' W 118°17'0 0.0
2018-Jun-18 07:59N 33°43' W 118°17'0 0.0
2018-Jun-18 07:17N 33°43' W 118°17'0 0.0
2018-Jun-18 06:47N 33°43' W 118°17'0 0.0
2018-Jun-18 02:11N 33°43' W 118°17'0 0.0
2018-Jun-18 01:53N 33°43' W 118°17'0 0.0
2018-Jun-17 23:23N 33°43' W 118°17'0 0.0
2018-Jun-17 22:59N 33°43' W 118°17'0 0.0
2018-Jun-17 22:29N 33°43' W 118°17'0 0.0
2018-Jun-17 17:57N 33°43' W 118°17'0 1.0
2018-Jun-17 17:28N 33°44' W 118°17'0 0.0
2018-Jun-17 17:00N 33°44' W 118°17'1 1.1
2018-Jun-17 16:28N 33°43' W 118°17'0 0.0
2018-Jun-17 13:47N 33°43' W 118°17'0 0.0
2018-Jun-17 10:05N 33°43' W 118°17'0 0.0
2018-Jun-17 09:47N 33°43' W 118°17'0 0.0
2018-Jun-17 08:23N 33°43' W 118°17'0 0.0
2018-Jun-17 07:53N 33°43' W 118°17'0 0.0
2018-Jun-17 07:17N 33°43' W 118°17'0 0.0
2018-Jun-17 06:53N 33°43' W 118°17'0 0.0
2018-Jun-17 06:23N 33°43' W 118°17'0 0.0
2018-Jun-17 02:09N 33°43' W 118°17'1 3.8
2018-Jun-17 01:46N 33°43' W 118°15'4 1.2
2018-Jun-16 22:35N 33°40' W 118°18'1 4.3
2018-Jun-16 22:20N 33°40' W 118°17'1 3.8
2018-Jun-16 22:00N 33°40' W 118°16'4 7.5
2018-Jun-16 21:29N 33°41' W 118°11'1 1.4
2018-Jun-16 21:00N 33°40' W 118°11'3 6.6
2018-Jun-16 20:30N 33°41' W 118°15'2 4.2
2018-Jun-16 19:59N 33°43' W 118°17'0 0.0
2018-Jun-16 04:43N 33°43' W 118°17'0 0.0
2018-Jun-15 20:49N 33°43' W 118°17'0 0.0
2018-Jun-14 18:01N 33°43' W 118°17'0 0.0
2018-Jun-14 17:58N 33°43' W 118°17'0 0.0
2018-Jun-14 14:40N 33°43' W 118°17'0 0.0
2018-Jun-14 14:28N 33°43' W 118°17'0 0.0
2018-Jun-14 11:52N 33°43' W 118°17'0 0.0
2018-Jun-14 09:55N 33°43' W 118°17'0 0.0
2018-Jun-14 09:16N 33°43' W 118°17'0 0.0
2018-Jun-13 23:28N 33°43' W 118°17'0 0.0
2018-Jun-11 23:55N 33°43' W 118°17'0 0.0
2018-Jun-11 23:13N 33°43' W 118°17'0 0.0
2018-Jun-11 22:55N 33°43' W 118°17'0 0.0
2018-Jun-11 05:22N 33°43' W 118°17'0 0.0
2018-Jun-11 03:34N 33°43' W 118°17'0 0.0
2018-Jun-11 01:52N 33°43' W 118°17'0 0.0
2018-Jun-11 00:13N 33°43' W 118°17'0 0.0
2018-Jun-10 01:25N 33°43' W 118°17'0 0.0
2018-Jun-10 00:55N 33°43' W 118°17'0 0.0
2018-Jun-10 00:25N 33°43' W 118°17'1 1.5
2018-Jun-09 23:46N 33°43' W 118°16'2 0.5
2018-Jun-09 19:24N 33°41' W 118°17'2 5.2
2018-Jun-09 18:58N 33°43' W 118°16'1 0.5
2018-Jun-09 16:20N 33°43' W 118°17'0 0.0
2018-Jun-09 15:59N 33°43' W 118°17'  
Track history (hours):
 
Tides and Currents Weather Stations Pressure Air Temp Water Temp Dewpoint Dewpoint Depression Visibility Wind Speed Wind Dir Waves Ship Positions

Shelly Sue

Last reported at 2018-Jun-19 02:47 UTC. Time now 2018-Jun-19 20:13 UTC.
Position N 33°43' W 118°17'.

Length 19 m.

Type: Pleasure craft. MMSI: 338215311.

Date/timePositionNaut miles runAvg speedWind from/ knotsBaromVisibWave heightAir tempDewpointWater temp
2018-Jun-19 02:47N 33°43' W 118°17'0 0.0
2018-Jun-19 02:23N 33°43' W 118°17'0 0.0
2018-Jun-18 18:47N 33°43' W 118°17'0 0.0
2018-Jun-18 18:26N 33°43' W 118°17'0 0.0
2018-Jun-18 14:59N 33°43' W 118°17'0 0.0
2018-Jun-18 12:59N 33°43' W 118°17'0 0.0
2018-Jun-18 08:26N 33°43' W 118°17'0 0.0
2018-Jun-18 07:59N 33°43' W 118°17'0 0.0
2018-Jun-18 07:17N 33°43' W 118°17'0 0.0
2018-Jun-18 06:47N 33°43' W 118°17'0 0.0
2018-Jun-18 02:11N 33°43' W 118°17'0 0.0
2018-Jun-18 01:53N 33°43' W 118°17'0 0.0
2018-Jun-17 23:23N 33°43' W 118°17'0 0.0
2018-Jun-17 22:59N 33°43' W 118°17'0 0.0
2018-Jun-17 22:29N 33°43' W 118°17'0 0.0
2018-Jun-17 17:57N 33°43' W 118°17'0 1.0
2018-Jun-17 17:28N 33°44' W 118°17'0 0.0
2018-Jun-17 17:00N 33°44' W 118°17'1 1.1
2018-Jun-17 16:28N 33°43' W 118°17'0 0.0
2018-Jun-17 13:47N 33°43' W 118°17'0 0.0
2018-Jun-17 10:05N 33°43' W 118°17'0 0.0
2018-Jun-17 09:47N 33°43' W 118°17'0 0.0
2018-Jun-17 08:23N 33°43' W 118°17'0 0.0
2018-Jun-17 07:53N 33°43' W 118°17'0 0.0
2018-Jun-17 07:17N 33°43' W 118°17'0 0.0
2018-Jun-17 06:53N 33°43' W 118°17'0 0.0
2018-Jun-17 06:23N 33°43' W 118°17'0 0.0
2018-Jun-17 02:09N 33°43' W 118°17'1 3.8
2018-Jun-17 01:46N 33°43' W 118°15'4 1.2
2018-Jun-16 22:35N 33°40' W 118°18'1 4.3
2018-Jun-16 22:20N 33°40' W 118°17'1 3.8
2018-Jun-16 22:00N 33°40' W 118°16'4 7.5
2018-Jun-16 21:29N 33°41' W 118°11'1 1.4
2018-Jun-16 21:00N 33°40' W 118°11'3 6.6
2018-Jun-16 20:30N 33°41' W 118°15'2 4.2
2018-Jun-16 19:59N 33°43' W 118°17'0 0.0
2018-Jun-16 04:43N 33°43' W 118°17'0 0.0
2018-Jun-15 20:49N 33°43' W 118°17'0 0.0
2018-Jun-14 18:01N 33°43' W 118°17'0 0.0
2018-Jun-14 17:58N 33°43' W 118°17'0 0.0
2018-Jun-14 14:40N 33°43' W 118°17'0 0.0
2018-Jun-14 14:28N 33°43' W 118°17'0 0.0
2018-Jun-14 11:52N 33°43' W 118°17'0 0.0
2018-Jun-14 09:55N 33°43' W 118°17'0 0.0
2018-Jun-14 09:16N 33°43' W 118°17'0 0.0
2018-Jun-13 23:28N 33°43' W 118°17'0 0.0
2018-Jun-11 23:55N 33°43' W 118°17'0 0.0
2018-Jun-11 23:13N 33°43' W 118°17'0 0.0
2018-Jun-11 22:55N 33°43' W 118°17'0 0.0
2018-Jun-11 05:22N 33°43' W 118°17'0 0.0
2018-Jun-11 03:34N 33°43' W 118°17'0 0.0
2018-Jun-11 01:52N 33°43' W 118°17'0 0.0
2018-Jun-11 00:13N 33°43' W 118°17'0 0.0
2018-Jun-10 01:25N 33°43' W 118°17'0 0.0
2018-Jun-10 00:55N 33°43' W 118°17'0 0.0
2018-Jun-10 00:25N 33°43' W 118°17'1 1.5
2018-Jun-09 23:46N 33°43' W 118°16'2 0.5
2018-Jun-09 19:24N 33°41' W 118°17'2 5.2
2018-Jun-09 18:58N 33°43' W 118°16'1 0.5
2018-Jun-09 16:20N 33°43' W 118°17'0 0.0
2018-Jun-09 15:59N 33°43' W 118°17'  

Dump ship's entire track history